Tallahassee, FL

6:11 PM EDT on June 23, 2017 (GMT -0400)
Tallahassee Regional | | Change Station

Elev 79 ft 30.40 °N, 84.35 °W | Updated 18 minutes ago

Scattered Clouds
Scattered Clouds
89 °F
Feels Like 100 °F
N
17
Wind Variable Wind from SSE
Gusts 22 mph

Today
High -- | Low -- °F
--% Chance of Precip.
Yesterday
High -- | Low -- °F
Precip. -- in
Pressure 29.96 in
Visibility 10.0 miles
Clouds Scattered Clouds 3600 ft
Scattered Clouds 25000 ft
Heat Index 100 °F
Dew Point 76 °F
Humidity 65%
Rainfall 0.00 in
Snow Depth Not available.
6:36 AM 8:42 PM
Waning Crescent, 0% visible
METAR KTLH 232153Z 16015G19KT 10SM SCT036 SCT250 32/24 A2996 RMK AO2 SLP144 CB DSNT NE MOV NE T03170244
Pressure 29.96 in
Visibility 10.0 miles
Clouds Scattered Clouds 3600 ft
Scattered Clouds 25000 ft
Heat Index 100 °F
Dew Point 76 °F
Humidity 65%
Rainfall 0.00 in
Snow Depth Not available.
6:36 AM 8:42 PM
Waning Crescent, 0% visible
METAR KTLH 232153Z 16015G19KT 10SM SCT036 SCT250 32/24 A2996 RMK AO2 SLP144 CB DSNT NE MOV NE T03170244

Get Severe Weather Alerts

Thanks for signing up!

Be on the lookout for a verification email in your inbox.

You'll start receiving the daily forecast at 6 AM.

×

10-Day Weather Forecast

Almanac

Astronomy

Jun. 23, 2017 Rise Set
Actual Time
Civil Twilight
Nautical Twilight
Astronomical Twilight
Moon
Length of Visible Light
Length of Day
Tomorrow will be .
, % of the Moon is Illuminated

Today's Extremes

State Highs State Lows

Community

WunderPhotos

Category 6

Welcome to Category 6. This is the collective home for Weather Underground's featured writeups by Dr. Jeff Masters (right), Bob Henson (left), Chris Burt, and other regular contributors.

Nearby

Air Quality

  Air Quality AQ Index Pollutant
Not available.

Snow Depth

Station Depth Elevation

Earthquake Activity

City Distance Mag. Time & Date
Minimum magnitude displayed is 2.5.

Coastal Water Temperatures

Place Temperature

Stations

Nearby Weather Stations

Station Location Temp. Windchill Dew Point Humidity Wind Precip. Elev Updated Type
                   

Watches & Warnings

There are currently no watches in effect.